AFR56T LFPG-KLAS
Flight info
| Callsign | AFR56T |
|---|---|
| Flight time | N/A |
| Altitude | 30000 |
| Route | ATREX DCT VESAN DCT RATUK DCT SOVAT/N0484F360 L613 SANDY L722 ICTAM T421 DIDZA DCT CESQA DCT BIBPE DCT MEDOG DCT LANON DCT LIPGO DCT REVNU DCT SUNOT/M084F370 DCT 58N020W 60N030W 61N040W 62N050W DCT NIFTY/N0495F380 DCT JELCO DCT GOSEP/N0495F400 DCT GABOV DCT GFK DCT RAP DCT EKR J100 SAKES DCT GGAPP CHOWW4 |
| Aircraft | A359/H-SDE2E3GHIJ3J4J5LM1ORWXY/LB1D1 |
Departure
| Time | 2026-05-07 07:26 |
|---|---|
| Airport | Charles de Gaulle International Airport (LFPG) |
Arrival
| Time | N/A |
|---|---|
| Airport | Harry Reid International Airport (KLAS) |
| Time | Latitude | Longitude | Altitude | Speed | Heading |
|---|---|---|---|---|---|
| 2026-05-07 06:54 | 49.00286 | 2.58611 | 359 ft | 0 kts | 265° |
| 2026-05-07 07:07 | 49.00286 | 2.58614 | 359 ft | 2 kts | 265° |
| 2026-05-07 07:08 | 49.00288 | 2.58640 | 367 ft | 4 kts | 265° |
| 2026-05-07 07:08 | 49.00291 | 2.58690 | 363 ft | 4 kts | 266° |
| 2026-05-07 07:08 | 49.00292 | 2.58715 | 362 ft | 4 kts | 282° |
| 2026-05-07 07:08 | 49.00281 | 2.58748 | 366 ft | 4 kts | 338° |
| 2026-05-07 07:09 | 49.00258 | 2.58754 | 367 ft | 4 kts | 0° |
| 2026-05-07 07:09 | 49.00241 | 2.58754 | 362 ft | 2 kts | 356° |
| 2026-05-07 07:09 | 49.00235 | 2.58755 | 361 ft | 0 kts | 355° |
| 2026-05-07 07:13 | 49.00240 | 2.58754 | 362 ft | 4 kts | 355° |
| 2026-05-07 07:13 | 49.00275 | 2.58750 | 364 ft | 6 kts | 355° |
| 2026-05-07 07:13 | 49.00331 | 2.58743 | 359 ft | 11 kts | 355° |
| 2026-05-07 07:13 | 49.00407 | 2.58734 | 364 ft | 11 kts | 355° |
| 2026-05-07 07:14 | 49.00487 | 2.58724 | 365 ft | 12 kts | 356° |
| 2026-05-07 07:14 | 49.00571 | 2.58715 | 362 ft | 12 kts | 354° |
| 2026-05-07 07:14 | 49.00658 | 2.58703 | 359 ft | 13 kts | 355° |
| 2026-05-07 07:14 | 49.00749 | 2.58692 | 365 ft | 13 kts | 356° |
| 2026-05-07 07:15 | 49.00830 | 2.58657 | 368 ft | 11 kts | 340° |
| 2026-05-07 07:15 | 49.00901 | 2.58634 | 366 ft | 10 kts | 6° |
| 2026-05-07 07:15 | 49.00935 | 2.58676 | 368 ft | 5 kts | 66° |
| 2026-05-07 07:15 | 49.00942 | 2.58734 | 363 ft | 6 kts | 84° |
| 2026-05-07 07:16 | 49.00945 | 2.58802 | 365 ft | 7 kts | 85° |
| 2026-05-07 07:16 | 49.00950 | 2.58882 | 367 ft | 8 kts | 85° |
| 2026-05-07 07:16 | 49.00961 | 2.58973 | 365 ft | 9 kts | 75° |
| 2026-05-07 07:16 | 49.00979 | 2.59073 | 364 ft | 10 kts | 76° |
| 2026-05-07 07:17 | 49.00989 | 2.59186 | 361 ft | 11 kts | 84° |
| 2026-05-07 07:17 | 49.00995 | 2.59309 | 364 ft | 12 kts | 85° |
| 2026-05-07 07:17 | 49.01002 | 2.59442 | 366 ft | 13 kts | 86° |
| 2026-05-07 07:17 | 49.00978 | 2.59518 | 366 ft | 12 kts | 142° |
| 2026-05-07 07:18 | 49.00863 | 2.59543 | 360 ft | 14 kts | 175° |
| 2026-05-07 07:18 | 49.00796 | 2.59551 | 363 ft | 15 kts | 175° |
| 2026-05-07 07:18 | 49.00651 | 2.59569 | 366 ft | 16 kts | 175° |
| 2026-05-07 07:18 | 49.00575 | 2.59579 | 362 ft | 17 kts | 175° |
| 2026-05-07 07:19 | 49.00456 | 2.59594 | 362 ft | 18 kts | 175° |
| 2026-05-07 07:19 | 49.00290 | 2.59615 | 364 ft | 18 kts | 176° |
| 2026-05-07 07:19 | 49.00204 | 2.59624 | 360 ft | 18 kts | 175° |
| 2026-05-07 07:19 | 49.00101 | 2.59674 | 363 ft | 10 kts | 114° |
| 2026-05-07 07:20 | 49.00093 | 2.59782 | 365 ft | 11 kts | 91° |
| 2026-05-07 07:20 | 49.00095 | 2.59861 | 362 ft | 11 kts | 86° |
| 2026-05-07 07:20 | 49.00100 | 2.59986 | 366 ft | 12 kts | 86° |
| 2026-05-07 07:20 | 49.00106 | 2.60075 | 363 ft | 13 kts | 84° |
| 2026-05-07 07:21 | 49.00114 | 2.60216 | 364 ft | 14 kts | 86° |
| 2026-05-07 07:21 | 49.00124 | 2.60416 | 360 ft | 15 kts | 85° |
| 2026-05-07 07:21 | 49.00127 | 2.60466 | 360 ft | 15 kts | 85° |
| 2026-05-07 07:21 | 49.00138 | 2.60682 | 365 ft | 16 kts | 85° |
| 2026-05-07 07:22 | 48.99990 | 2.61024 | 367 ft | 0 kts | 176° |
| 2026-05-07 07:25 | 48.99864 | 2.60787 | 360 ft | 12 kts | 264° |
| 2026-05-07 07:25 | 48.99855 | 2.60589 | 360 ft | 32 kts | 266° |
| 2026-05-07 07:25 | 48.99824 | 2.60014 | 363 ft | 82 kts | 264° |
| 2026-05-07 07:26 | 48.99764 | 2.58873 | 361 ft | 132 kts | 265° |
| 2026-05-07 07:26 | 48.99673 | 2.57250 | 363 ft | 175 kts | 265° |
| 2026-05-07 07:26 | 48.99535 | 2.55408 | 935 ft | 171 kts | 265° |
| 2026-05-07 07:26 | 48.99434 | 2.53589 | 1531 ft | 174 kts | 267° |
| 2026-05-07 07:27 | 48.99353 | 2.51728 | 2139 ft | 177 kts | 267° |
| 2026-05-07 07:27 | 48.99100 | 2.46685 | 3483 ft | 182 kts | 266° |
| 2026-05-07 07:28 | 48.99066 | 2.46027 | 3579 ft | 187 kts | 266° |
| 2026-05-07 07:28 | 48.98838 | 2.41716 | 4011 ft | 222 kts | 266° |
| 2026-05-07 07:28 | 48.98702 | 2.39279 | 4297 ft | 239 kts | 266° |
| 2026-05-07 07:28 | 48.98656 | 2.38459 | 4394 ft | 244 kts | 266° |
| 2026-05-07 07:29 | 48.98457 | 2.34913 | 5042 ft | 256 kts | 266° |
| 2026-05-07 07:29 | 48.98256 | 2.31296 | 5835 ft | 262 kts | 265° |
| 2026-05-07 07:29 | 48.98100 | 2.28508 | 6484 ft | 266 kts | 265° |
| 2026-05-07 07:29 | 48.98084 | 2.25681 | 7105 ft | 270 kts | 277° |
| 2026-05-07 07:30 | 48.98652 | 2.22964 | 7774 ft | 271 kts | 299° |
| 2026-05-07 07:30 | 48.99863 | 2.20754 | 8464 ft | 274 kts | 321° |
| 2026-05-07 07:30 | 49.01544 | 2.19376 | 9133 ft | 278 kts | 343° |
| 2026-05-07 07:30 | 49.03470 | 2.19047 | 9800 ft | 283 kts | 4° |
| 2026-05-07 07:31 | 49.05440 | 2.19462 | 10387 ft | 291 kts | 9° |
| 2026-05-07 07:31 | 49.07494 | 2.19990 | 10705 ft | 307 kts | 8° |
| 2026-05-07 07:31 | 49.09642 | 2.20518 | 11050 ft | 322 kts | 8° |
| 2026-05-07 07:31 | 49.11905 | 2.21060 | 11412 ft | 336 kts | 8° |
| 2026-05-07 07:32 | 49.14265 | 2.21618 | 11779 ft | 349 kts | 8° |
| 2026-05-07 07:32 | 49.16701 | 2.22192 | 12289 ft | 356 kts | 8° |
| 2026-05-07 07:32 | 49.18328 | 2.22575 | 12676 ft | 360 kts | 8° |
| 2026-05-07 07:32 | 49.21673 | 2.23362 | 13479 ft | 366 kts | 7° |
| 2026-05-07 07:33 | 49.24201 | 2.23955 | 14071 ft | 370 kts | 7° |
| 2026-05-07 07:33 | 49.26767 | 2.24559 | 14616 ft | 374 kts | 7° |
| 2026-05-07 07:33 | 49.29358 | 2.25168 | 15180 ft | 378 kts | 7° |
| 2026-05-07 07:33 | 49.31931 | 2.25774 | 15737 ft | 381 kts | 7° |
| 2026-05-07 07:34 | 49.34561 | 2.26394 | 16296 ft | 384 kts | 7° |
| 2026-05-07 07:34 | 49.37213 | 2.27019 | 16872 ft | 387 kts | 7° |
| 2026-05-07 07:34 | 49.39884 | 2.27650 | 17440 ft | 390 kts | 7° |
| 2026-05-07 07:34 | 49.42578 | 2.28287 | 18028 ft | 393 kts | 7° |
| 2026-05-07 07:35 | 49.45292 | 2.28930 | 18585 ft | 396 kts | 7° |
| 2026-05-07 07:35 | 49.47100 | 2.29358 | 18927 ft | 398 kts | 7° |
| 2026-05-07 07:35 | 49.49854 | 2.30011 | 19466 ft | 401 kts | 7° |
| 2026-05-07 07:35 | 49.53574 | 2.30895 | 20166 ft | 405 kts | 7° |
| 2026-05-07 07:36 | 49.56369 | 2.31560 | 20699 ft | 408 kts | 7° |
| 2026-05-07 07:36 | 49.59185 | 2.32230 | 21221 ft | 411 kts | 7° |
| 2026-05-07 07:36 | 49.62035 | 2.32909 | 21744 ft | 414 kts | 7° |
| 2026-05-07 07:36 | 49.64894 | 2.33592 | 22262 ft | 417 kts | 7° |
| 2026-05-07 07:37 | 49.67735 | 2.34270 | 22762 ft | 420 kts | 7° |
| 2026-05-07 07:37 | 49.70646 | 2.34967 | 23279 ft | 423 kts | 7° |
| 2026-05-07 07:37 | 49.73559 | 2.35662 | 23755 ft | 426 kts | 7° |
| 2026-05-07 07:37 | 49.76518 | 2.36123 | 24153 ft | 428 kts | 0° |
| 2026-05-07 07:38 | 49.79494 | 2.35818 | 24584 ft | 429 kts | 349° |
| 2026-05-07 07:38 | 49.82392 | 2.34684 | 25009 ft | 430 kts | 341° |
| 2026-05-07 07:38 | 49.85227 | 2.33194 | 25417 ft | 432 kts | 339° |
| 2026-05-07 07:38 | 49.88056 | 2.31565 | 25823 ft | 435 kts | 338° |
| 2026-05-07 07:39 | 49.90885 | 2.29877 | 26228 ft | 437 kts | 338° |
| 2026-05-07 07:39 | 49.93730 | 2.28170 | 26639 ft | 440 kts | 338° |
| 2026-05-07 07:39 | 49.96598 | 2.26460 | 27053 ft | 442 kts | 338° |
| 2026-05-07 07:39 | 49.99427 | 2.24790 | 27454 ft | 445 kts | 338° |
| 2026-05-07 07:40 | 50.02323 | 2.23092 | 27861 ft | 447 kts | 338° |
| 2026-05-07 07:40 | 50.04296 | 2.21940 | 28127 ft | 449 kts | 338° |
| 2026-05-07 07:40 | 50.05244 | 2.21388 | 28256 ft | 449 kts | 338° |
| 2026-05-07 07:41 | 50.14119 | 2.16213 | 29377 ft | 457 kts | 338° |
| 2026-05-07 07:41 | 50.17100 | 2.14470 | 29737 ft | 459 kts | 338° |
| 2026-05-07 07:41 | 50.20103 | 2.12711 | 30013 ft | 463 kts | 338° |
| 2026-05-07 07:41 | 50.23079 | 2.10966 | 30052 ft | 451 kts | 338° |
| 2026-05-07 07:42 | 50.25973 | 2.09269 | 30051 ft | 439 kts | 338° |
| 2026-05-07 07:42 | 50.31631 | 2.05939 | 30051 ft | 436 kts | 338° |
| 2026-05-07 07:43 | 50.37161 | 2.02060 | 30052 ft | 434 kts | 326° |
| 2026-05-07 07:43 | 50.41933 | 1.96295 | 30048 ft | 432 kts | 318° |
| 2026-05-07 07:44 | 50.46480 | 1.90119 | 30048 ft | 432 kts | 317° |
| 2026-05-07 07:44 | 50.51004 | 1.83871 | 30049 ft | 432 kts | 317° |
| 2026-05-07 07:45 | 50.55524 | 1.77647 | 30052 ft | 432 kts | 317° |
| 2026-05-07 07:45 | 50.60019 | 1.71468 | 30053 ft | 432 kts | 317° |
| 2026-05-07 07:46 | 50.64566 | 1.65210 | 30052 ft | 432 kts | 317° |
| 2026-05-07 07:46 | 50.69089 | 1.58967 | 30044 ft | 432 kts | 317° |
| 2026-05-07 07:47 | 50.73602 | 1.52712 | 30052 ft | 432 kts | 317° |
| 2026-05-07 07:47 | 50.78112 | 1.46441 | 30198 ft | 435 kts | 317° |
| 2026-05-07 07:47 | 50.80406 | 1.43248 | 30328 ft | 441 kts | 317° |
| 2026-05-07 07:48 | 50.82715 | 1.40030 | 30488 ft | 446 kts | 317° |
| 2026-05-07 07:48 | 50.85071 | 1.36744 | 30650 ft | 452 kts | 317° |
| 2026-05-07 07:48 | 50.87436 | 1.33440 | 30792 ft | 457 kts | 317° |
| 2026-05-07 07:48 | 50.89802 | 1.30132 | 30998 ft | 462 kts | 317° |
| 2026-05-07 07:49 | 50.92219 | 1.26748 | 31205 ft | 465 kts | 317° |
| 2026-05-07 07:49 | 50.94647 | 1.23344 | 31439 ft | 468 kts | 317° |
| 2026-05-07 07:49 | 50.97093 | 1.19909 | 31676 ft | 470 kts | 317° |
| 2026-05-07 07:49 | 50.99548 | 1.16457 | 31921 ft | 472 kts | 317° |
| 2026-05-07 07:50 | 51.02005 | 1.12989 | 32147 ft | 474 kts | 317° |
| 2026-05-07 07:50 | 51.04319 | 1.09223 | 32369 ft | 475 kts | 309° |
| 2026-05-07 07:50 | 51.06254 | 1.05001 | 32660 ft | 474 kts | 300° |
| 2026-05-07 07:50 | 51.07754 | 1.00360 | 32984 ft | 472 kts | 291° |
| 2026-05-07 07:51 | 51.08934 | 0.95471 | 33289 ft | 472 kts | 289° |
| 2026-05-07 07:51 | 51.09670 | 0.92198 | 33475 ft | 472 kts | 289° |
| 2026-05-07 07:51 | 51.11086 | 0.85646 | 33839 ft | 472 kts | 288° |
| 2026-05-07 07:51 | 51.12139 | 0.80687 | 34117 ft | 472 kts | 288° |
| 2026-05-07 07:52 | 51.13195 | 0.75715 | 34359 ft | 472 kts | 288° |
| 2026-05-07 07:52 | 51.15312 | 0.65792 | 34627 ft | 473 kts | 288° |
| 2026-05-07 07:52 | 51.16011 | 0.62525 | 34739 ft | 474 kts | 288° |
| 2026-05-07 07:53 | 51.17440 | 0.55850 | 34983 ft | 474 kts | 288° |
| 2026-05-07 07:53 | 51.18499 | 0.50895 | 35203 ft | 474 kts | 288° |
| 2026-05-07 07:53 | 51.19562 | 0.45909 | 35377 ft | 474 kts | 288° |
| 2026-05-07 07:53 | 51.20623 | 0.40920 | 35561 ft | 475 kts | 288° |
| 2026-05-07 07:54 | 51.21682 | 0.35929 | 35725 ft | 475 kts | 288° |
| 2026-05-07 07:54 | 51.22727 | 0.30985 | 35879 ft | 476 kts | 288° |
| 2026-05-07 07:54 | 51.23790 | 0.25954 | 35935 ft | 480 kts | 288° |
| 2026-05-07 07:54 | 51.24863 | 0.20879 | 36079 ft | 484 kts | 288° |
| 2026-05-07 07:55 | 51.25932 | 0.15789 | 36077 ft | 484 kts | 288° |
| 2026-05-07 07:55 | 51.28054 | 0.05619 | 36072 ft | 483 kts | 288° |
| 2026-05-07 07:56 | 51.29821 | -0.02885 | 36072 ft | 483 kts | 288° |
| 2026-05-07 07:56 | 51.31924 | -0.13041 | 36078 ft | 483 kts | 288° |
| 2026-05-07 07:57 | 51.34382 | -0.24975 | 36076 ft | 484 kts | 288° |
| 2026-05-07 07:57 | 51.35911 | -0.32431 | 36077 ft | 484 kts | 288° |
| 2026-05-07 07:58 | 51.38001 | -0.42673 | 36077 ft | 484 kts | 288° |
| 2026-05-07 07:58 | 51.40083 | -0.52928 | 36072 ft | 485 kts | 288° |
| 2026-05-07 07:59 | 51.42146 | -0.63144 | 36079 ft | 485 kts | 288° |
| 2026-05-07 07:59 | 51.44234 | -0.73537 | 36077 ft | 485 kts | 287° |
| 2026-05-07 08:00 | 51.46297 | -0.83861 | 36070 ft | 486 kts | 287° |
| 2026-05-07 08:00 | 51.48338 | -0.94132 | 36076 ft | 487 kts | 287° |
| 2026-05-07 08:01 | 51.50386 | -1.04487 | 36080 ft | 487 kts | 287° |
| 2026-05-07 08:01 | 51.52498 | -1.14828 | 36076 ft | 488 kts | 292° |
| 2026-05-07 08:02 | 51.55550 | -1.24550 | 36070 ft | 488 kts | 298° |
| 2026-05-07 08:02 | 51.58864 | -1.34115 | 36078 ft | 489 kts | 299° |
| 2026-05-07 08:03 | 51.61783 | -1.43824 | 36070 ft | 489 kts | 292° |
| 2026-05-07 08:03 | 51.64278 | -1.54021 | 36074 ft | 491 kts | 291° |
| 2026-05-07 08:04 | 51.66719 | -1.64318 | 36076 ft | 492 kts | 291° |
| 2026-05-07 08:04 | 51.69139 | -1.74563 | 36076 ft | 492 kts | 291° |
| 2026-05-07 08:05 | 51.71493 | -1.84922 | 36068 ft | 493 kts | 286° |
| 2026-05-07 08:05 | 51.73178 | -1.95643 | 36077 ft | 493 kts | 283° |
| 2026-05-07 08:06 | 51.74734 | -2.06413 | 36072 ft | 493 kts | 283° |
| 2026-05-07 08:06 | 51.76266 | -2.17207 | 36081 ft | 493 kts | 283° |
| 2026-05-07 08:07 | 51.77794 | -2.27993 | 36082 ft | 493 kts | 283° |
| 2026-05-07 08:07 | 51.79322 | -2.38810 | 36070 ft | 493 kts | 283° |
| 2026-05-07 08:08 | 51.80830 | -2.49548 | 36068 ft | 493 kts | 283° |
| 2026-05-07 08:08 | 51.82338 | -2.60375 | 36071 ft | 493 kts | 283° |
| 2026-05-07 08:09 | 51.83838 | -2.71224 | 36080 ft | 494 kts | 282° |
| 2026-05-07 08:09 | 51.85325 | -2.82056 | 36070 ft | 494 kts | 282° |
| 2026-05-07 08:10 | 51.86805 | -2.92912 | 36077 ft | 494 kts | 282° |
| 2026-05-07 08:10 | 51.88275 | -3.03783 | 36067 ft | 494 kts | 282° |
| 2026-05-07 08:11 | 51.89727 | -3.14601 | 36063 ft | 495 kts | 282° |
| 2026-05-07 08:11 | 51.91179 | -3.25498 | 36056 ft | 495 kts | 282° |
| 2026-05-07 08:12 | 51.92620 | -3.36398 | 36055 ft | 495 kts | 282° |
| 2026-05-07 08:12 | 51.94124 | -3.47295 | 36049 ft | 496 kts | 287° |
| 2026-05-07 08:13 | 51.96986 | -3.57423 | 36038 ft | 494 kts | 305° |
| 2026-05-07 08:13 | 52.01422 | -3.65889 | 36031 ft | 494 kts | 314° |
| 2026-05-07 08:14 | 52.06197 | -3.73942 | 36029 ft | 495 kts | 315° |
| 2026-05-07 08:14 | 52.10996 | -3.81978 | 36024 ft | 495 kts | 315° |
| 2026-05-07 08:15 | 52.15768 | -3.90066 | 36027 ft | 495 kts | 314° |
| 2026-05-07 08:15 | 52.20493 | -3.98145 | 36026 ft | 495 kts | 314° |
| 2026-05-07 08:16 | 52.25235 | -4.06291 | 36023 ft | 495 kts | 314° |
| 2026-05-07 08:16 | 52.29978 | -4.14461 | 36017 ft | 496 kts | 314° |
| 2026-05-07 08:17 | 52.34711 | -4.22641 | 36015 ft | 496 kts | 314° |
| 2026-05-07 08:17 | 52.39454 | -4.30865 | 36012 ft | 496 kts | 314° |
| 2026-05-07 08:18 | 52.44182 | -4.39089 | 36012 ft | 496 kts | 314° |
| 2026-05-07 08:18 | 52.48114 | -4.45945 | 36012 ft | 497 kts | 314° |
| 2026-05-07 08:19 | 52.52847 | -4.54235 | 36009 ft | 497 kts | 314° |
| 2026-05-07 08:19 | 52.54413 | -4.56984 | 36008 ft | 497 kts | 313° |
| 2026-05-07 08:20 | 52.63259 | -4.72564 | 36008 ft | 498 kts | 313° |
| 2026-05-07 08:20 | 52.67956 | -4.80877 | 36005 ft | 498 kts | 313° |
| 2026-05-07 08:21 | 52.71114 | -4.86481 | 36007 ft | 499 kts | 313° |
| 2026-05-07 08:21 | 52.76630 | -4.96299 | 36001 ft | 499 kts | 313° |
| 2026-05-07 08:22 | 52.81309 | -5.04658 | 36000 ft | 499 kts | 312° |
| 2026-05-07 08:22 | 52.86012 | -5.13091 | 36000 ft | 498 kts | 312° |
| 2026-05-07 08:23 | 52.90678 | -5.21485 | 35991 ft | 498 kts | 312° |
| 2026-05-07 08:23 | 52.95369 | -5.29955 | 35992 ft | 498 kts | 312° |
| 2026-05-07 08:24 | 53.00046 | -5.38429 | 35990 ft | 497 kts | 312° |
| 2026-05-07 08:24 | 53.04669 | -5.46868 | 35984 ft | 496 kts | 310° |
| 2026-05-07 08:25 | 53.08514 | -5.56335 | 35986 ft | 494 kts | 299° |
| 2026-05-07 08:25 | 53.11880 | -5.66292 | 35982 ft | 493 kts | 298° |
| 2026-05-07 08:26 | 53.16813 | -5.81336 | 35979 ft | 493 kts | 297° |
| 2026-05-07 08:26 | 53.20098 | -5.91362 | 35974 ft | 492 kts | 297° |
| 2026-05-07 08:27 | 53.23379 | -6.01381 | 35971 ft | 492 kts | 297° |
| 2026-05-07 08:27 | 53.26653 | -6.11414 | 35969 ft | 491 kts | 297° |
| 2026-05-07 08:28 | 53.29918 | -6.21459 | 35967 ft | 491 kts | 297° |
| 2026-05-07 08:28 | 53.33163 | -6.31485 | 35968 ft | 491 kts | 297° |
| 2026-05-07 08:29 | 53.36402 | -6.41537 | 35966 ft | 490 kts | 297° |
| 2026-05-07 08:29 | 53.39610 | -6.51530 | 35968 ft | 490 kts | 297° |
| 2026-05-07 08:30 | 53.42831 | -6.61608 | 35966 ft | 489 kts | 297° |
| 2026-05-07 08:30 | 53.46038 | -6.71686 | 35965 ft | 489 kts | 296° |
| 2026-05-07 08:31 | 53.49234 | -6.81769 | 35960 ft | 489 kts | 296° |
| 2026-05-07 08:31 | 53.52421 | -6.91866 | 35954 ft | 488 kts | 296° |
| 2026-05-07 08:32 | 53.55597 | -7.01970 | 35956 ft | 488 kts | 296° |
| 2026-05-07 08:32 | 53.58762 | -7.12081 | 35949 ft | 488 kts | 296° |
| 2026-05-07 08:33 | 53.61910 | -7.22181 | 35952 ft | 488 kts | 296° |
| 2026-05-07 08:33 | 53.65056 | -7.32313 | 35947 ft | 487 kts | 296° |
| 2026-05-07 08:34 | 53.68186 | -7.42440 | 35946 ft | 487 kts | 296° |
| 2026-05-07 08:34 | 53.71290 | -7.52524 | 35945 ft | 487 kts | 295° |
| 2026-05-07 08:35 | 53.74402 | -7.62678 | 35943 ft | 486 kts | 295° |
| 2026-05-07 08:35 | 53.77500 | -7.72830 | 35936 ft | 486 kts | 295° |
| 2026-05-07 08:36 | 53.80591 | -7.83000 | 35936 ft | 486 kts | 295° |
| 2026-05-07 08:36 | 53.83672 | -7.93181 | 35931 ft | 485 kts | 295° |
| 2026-05-07 08:37 | 53.86745 | -8.03379 | 35928 ft | 485 kts | 295° |
| 2026-05-07 08:37 | 53.89779 | -8.13491 | 35924 ft | 485 kts | 295° |
| 2026-05-07 08:38 | 53.92817 | -8.23660 | 35916 ft | 484 kts | 294° |
| 2026-05-07 08:38 | 53.95858 | -8.33884 | 35916 ft | 483 kts | 294° |
| 2026-05-07 08:39 | 53.98879 | -8.44082 | 35912 ft | 483 kts | 294° |
| 2026-05-07 08:39 | 54.01891 | -8.54295 | 35910 ft | 483 kts | 294° |
| 2026-05-07 08:40 | 54.04884 | -8.64489 | 35911 ft | 482 kts | 294° |
| 2026-05-07 08:40 | 54.07876 | -8.74723 | 35910 ft | 482 kts | 294° |
| 2026-05-07 08:41 | 54.10855 | -8.84953 | 35908 ft | 481 kts | 294° |
| 2026-05-07 08:41 | 54.13800 | -8.95112 | 35903 ft | 481 kts | 293° |
| 2026-05-07 08:42 | 54.16751 | -9.05339 | 35908 ft | 481 kts | 293° |
| 2026-05-07 08:42 | 54.19697 | -9.15593 | 35899 ft | 480 kts | 293° |
| 2026-05-07 08:43 | 54.22633 | -9.25854 | 35899 ft | 480 kts | 293° |
| 2026-05-07 08:43 | 54.25558 | -9.36121 | 35897 ft | 480 kts | 292° |
| 2026-05-07 08:44 | 54.28470 | -9.46391 | 35894 ft | 480 kts | 292° |
| 2026-05-07 08:44 | 54.31375 | -9.56680 | 35896 ft | 479 kts | 292° |
| 2026-05-07 08:45 | 54.33781 | -9.65240 | 35882 ft | 479 kts | 292° |
| 2026-05-07 08:45 | 54.37132 | -9.77210 | 35892 ft | 479 kts | 292° |
| 2026-05-07 08:46 | 54.40004 | -9.87514 | 35894 ft | 478 kts | 292° |
| 2026-05-07 08:46 | 54.42861 | -9.97817 | 35891 ft | 478 kts | 291° |
| 2026-05-07 08:47 | 54.45790 | -10.08082 | 35893 ft | 480 kts | 296° |
| 2026-05-07 08:47 | 54.49895 | -10.17259 | 35891 ft | 487 kts | 309° |
| 2026-05-07 08:48 | 54.54614 | -10.25679 | 35883 ft | 489 kts | 310° |
| 2026-05-07 08:48 | 54.59407 | -10.33998 | 35884 ft | 489 kts | 310° |
| 2026-05-07 08:49 | 54.64185 | -10.42345 | 35876 ft | 489 kts | 310° |
| 2026-05-07 08:49 | 54.68917 | -10.50690 | 35873 ft | 488 kts | 310° |
| 2026-05-07 08:50 | 54.73646 | -10.59081 | 35873 ft | 488 kts | 309° |
| 2026-05-07 08:50 | 54.78386 | -10.67522 | 35867 ft | 488 kts | 309° |
| 2026-05-07 08:51 | 54.83120 | -10.75981 | 35867 ft | 488 kts | 309° |
| 2026-05-07 08:51 | 54.87842 | -10.84447 | 35864 ft | 488 kts | 309° |
| 2026-05-07 08:52 | 54.92554 | -10.92924 | 35857 ft | 488 kts | 309° |
| 2026-05-07 08:52 | 54.97261 | -11.01424 | 35859 ft | 488 kts | 309° |
| 2026-05-07 08:53 | 55.01974 | -11.09964 | 35855 ft | 488 kts | 309° |
| 2026-05-07 08:53 | 55.06664 | -11.18495 | 35838 ft | 487 kts | 308° |
| 2026-05-07 08:54 | 55.11326 | -11.27004 | 35842 ft | 487 kts | 308° |
| 2026-05-07 08:54 | 55.15997 | -11.35560 | 35843 ft | 487 kts | 308° |
| 2026-05-07 08:55 | 55.20663 | -11.44141 | 35838 ft | 486 kts | 308° |
| 2026-05-07 08:55 | 55.25324 | -11.52743 | 35837 ft | 486 kts | 308° |
| 2026-05-07 08:56 | 55.29973 | -11.61352 | 35832 ft | 485 kts | 308° |
| 2026-05-07 08:56 | 55.34607 | -11.69966 | 35829 ft | 484 kts | 308° |
| 2026-05-07 08:57 | 55.39199 | -11.78532 | 35826 ft | 484 kts | 308° |
| 2026-05-07 08:57 | 55.43805 | -11.87157 | 35819 ft | 483 kts | 308° |
| 2026-05-07 08:58 | 55.48398 | -11.95789 | 35817 ft | 482 kts | 308° |
| 2026-05-07 08:58 | 55.52976 | -12.04425 | 35815 ft | 482 kts | 307° |
| 2026-05-07 08:59 | 55.57549 | -12.13082 | 35810 ft | 482 kts | 307° |
| 2026-05-07 08:59 | 55.62111 | -12.21750 | 35807 ft | 481 kts | 307° |
| 2026-05-07 09:00 | 55.66679 | -12.30461 | 35802 ft | 481 kts | 307° |
| 2026-05-07 09:00 | 55.71226 | -12.39165 | 35799 ft | 481 kts | 307° |
| 2026-05-07 09:01 | 55.75762 | -12.47880 | 35796 ft | 481 kts | 307° |
| 2026-05-07 09:01 | 55.80302 | -12.56635 | 35794 ft | 481 kts | 307° |
| 2026-05-07 09:02 | 55.84798 | -12.65337 | 35789 ft | 481 kts | 307° |
| 2026-05-07 09:02 | 55.89326 | -12.74134 | 35785 ft | 482 kts | 307° |
| 2026-05-07 09:03 | 55.93849 | -12.82953 | 35775 ft | 482 kts | 307° |
| 2026-05-07 09:03 | 55.98370 | -12.91801 | 35783 ft | 482 kts | 307° |
| 2026-05-07 09:04 | 56.02883 | -13.00666 | 35777 ft | 482 kts | 307° |
| 2026-05-07 09:04 | 56.07405 | -13.09584 | 35775 ft | 483 kts | 307° |
| 2026-05-07 09:05 | 56.11911 | -13.18501 | 35773 ft | 483 kts | 307° |
| 2026-05-07 09:05 | 56.16378 | -13.27374 | 35770 ft | 483 kts | 307° |
| 2026-05-07 09:06 | 56.20874 | -13.36341 | 35769 ft | 483 kts | 307° |
| 2026-05-07 09:06 | 56.25363 | -13.45327 | 35765 ft | 483 kts | 307° |
| 2026-05-07 09:07 | 56.29848 | -13.54336 | 35760 ft | 483 kts | 307° |
| 2026-05-07 09:07 | 56.33569 | -13.61839 | 35761 ft | 482 kts | 307° |
| 2026-05-07 09:08 | 56.38034 | -13.70878 | 35756 ft | 482 kts | 307° |
| 2026-05-07 09:08 | 56.42490 | -13.79933 | 35755 ft | 482 kts | 307° |
| 2026-05-07 09:09 | 56.46937 | -13.89002 | 35748 ft | 482 kts | 307° |
| 2026-05-07 09:09 | 56.51381 | -13.98098 | 35744 ft | 482 kts | 307° |
| 2026-05-07 09:10 | 56.55788 | -14.07151 | 35745 ft | 482 kts | 307° |
| 2026-05-07 09:10 | 56.60214 | -14.16279 | 35741 ft | 481 kts | 307° |
| 2026-05-07 09:11 | 56.64637 | -14.25436 | 35738 ft | 481 kts | 307° |
| 2026-05-07 09:11 | 56.69047 | -14.34602 | 35726 ft | 481 kts | 307° |
| 2026-05-07 09:12 | 56.73420 | -14.43727 | 35731 ft | 481 kts | 307° |
| 2026-05-07 09:12 | 56.77810 | -14.52923 | 35738 ft | 481 kts | 307° |
| 2026-05-07 09:13 | 56.82191 | -14.62136 | 35730 ft | 480 kts | 307° |
| 2026-05-07 09:13 | 56.86564 | -14.71366 | 35731 ft | 480 kts | 307° |
| 2026-05-07 09:14 | 56.90926 | -14.80612 | 35729 ft | 480 kts | 307° |
| 2026-05-07 09:14 | 56.95292 | -14.89898 | 35726 ft | 480 kts | 307° |
| 2026-05-07 09:15 | 56.99400 | -14.99356 | 35992 ft | 473 kts | 298° |
| 2026-05-07 09:15 | 57.00968 | -15.04628 | 36272 ft | 468 kts | 291° |
| 2026-05-07 09:15 | 57.02299 | -15.10070 | 36473 ft | 467 kts | 290° |
| 2026-05-07 09:16 | 57.03566 | -15.15559 | 36649 ft | 467 kts | 290° |
| 2026-05-07 09:16 | 57.04798 | -15.21070 | 36832 ft | 467 kts | 289° |
| 2026-05-07 09:16 | 57.06016 | -15.26595 | 37031 ft | 466 kts | 289° |
| 2026-05-07 09:16 | 57.07231 | -15.32125 | 37201 ft | 466 kts | 289° |
| 2026-05-07 09:17 | 57.08446 | -15.37652 | 37385 ft | 466 kts | 289° |
| 2026-05-07 09:17 | 57.09661 | -15.43171 | 37547 ft | 466 kts | 289° |
| 2026-05-07 09:17 | 57.10881 | -15.48712 | 37714 ft | 467 kts | 290° |
| 2026-05-07 09:17 | 57.12102 | -15.54256 | 37745 ft | 468 kts | 289° |
| 2026-05-07 09:18 | 57.14541 | -15.65366 | 37754 ft | 467 kts | 289° |
| 2026-05-07 09:18 | 57.16950 | -15.76398 | 37751 ft | 467 kts | 289° |
| 2026-05-07 09:19 | 57.19358 | -15.87496 | 37765 ft | 466 kts | 289° |
| 2026-05-07 09:19 | 57.21758 | -15.98607 | 37769 ft | 465 kts | 289° |
| 2026-05-07 09:20 | 57.24144 | -16.09713 | 37774 ft | 465 kts | 289° |
| 2026-05-07 09:20 | 57.26515 | -16.20812 | 37787 ft | 464 kts | 289° |
| 2026-05-07 09:21 | 57.28872 | -16.31911 | 37793 ft | 464 kts | 289° |
| 2026-05-07 09:21 | 57.31216 | -16.43015 | 37797 ft | 464 kts | 289° |
| 2026-05-07 09:22 | 57.33549 | -16.54131 | 37812 ft | 463 kts | 289° |
| 2026-05-07 09:22 | 57.35873 | -16.65254 | 37815 ft | 463 kts | 289° |
| 2026-05-07 09:23 | 57.38187 | -16.76376 | 37826 ft | 462 kts | 289° |
| 2026-05-07 09:23 | 57.40486 | -16.87496 | 37823 ft | 462 kts | 289° |
| 2026-05-07 09:24 | 57.42773 | -16.98623 | 37829 ft | 462 kts | 289° |
| 2026-05-07 09:24 | 57.45049 | -17.09772 | 37840 ft | 461 kts | 289° |
| 2026-05-07 09:25 | 57.47316 | -17.20928 | 37851 ft | 462 kts | 289° |
| 2026-05-07 09:25 | 57.49561 | -17.32017 | 37859 ft | 461 kts | 289° |
| 2026-05-07 09:26 | 57.51815 | -17.43213 | 37870 ft | 461 kts | 289° |
| 2026-05-07 09:26 | 57.54051 | -17.54410 | 37877 ft | 462 kts | 289° |
| 2026-05-07 09:27 | 57.56280 | -17.65615 | 37886 ft | 462 kts | 289° |
| 2026-05-07 09:28 | 57.59603 | -17.82471 | 37896 ft | 462 kts | 289° |
| 2026-05-07 09:28 | 57.61798 | -17.93675 | 37904 ft | 462 kts | 289° |
| 2026-05-07 09:29 | 57.64009 | -18.05030 | 37909 ft | 462 kts | 289° |
| 2026-05-07 09:29 | 57.66181 | -18.16238 | 37918 ft | 462 kts | 289° |
| 2026-05-07 09:30 | 57.68361 | -18.27554 | 37925 ft | 463 kts | 288° |
| 2026-05-07 09:30 | 57.70526 | -18.38871 | 37930 ft | 463 kts | 289° |
| 2026-05-07 09:31 | 57.72688 | -18.50231 | 37938 ft | 463 kts | 288° |
| 2026-05-07 09:31 | 57.74837 | -18.61584 | 37946 ft | 463 kts | 288° |
| 2026-05-07 09:32 | 57.76981 | -18.72983 | 37954 ft | 464 kts | 288° |
| 2026-05-07 09:32 | 57.79114 | -18.84395 | 37955 ft | 464 kts | 288° |
| 2026-05-07 09:33 | 57.81237 | -18.95820 | 37961 ft | 464 kts | 288° |
| 2026-05-07 09:33 | 57.83351 | -19.07259 | 37963 ft | 464 kts | 288° |
| 2026-05-07 09:34 | 57.85442 | -19.18651 | 37976 ft | 465 kts | 288° |
| 2026-05-07 09:34 | 57.87537 | -19.30132 | 37981 ft | 464 kts | 288° |
| 2026-05-07 09:35 | 57.89621 | -19.41627 | 37987 ft | 465 kts | 288° |
| 2026-05-07 09:35 | 57.91699 | -19.53153 | 37994 ft | 465 kts | 288° |
| 2026-05-07 09:36 | 57.93755 | -19.64627 | 37998 ft | 465 kts | 288° |
| 2026-05-07 09:36 | 57.95826 | -19.76259 | 38005 ft | 465 kts | 288° |
| 2026-05-07 09:37 | 57.97869 | -19.87804 | 38008 ft | 465 kts | 288° |
| 2026-05-07 09:37 | 57.99967 | -19.99362 | 38011 ft | 466 kts | 292° |
| 2026-05-07 09:38 | 58.02640 | -20.10514 | 38020 ft | 466 kts | 295° |
| 2026-05-07 09:38 | 58.05411 | -20.21590 | 38026 ft | 466 kts | 295° |
| 2026-05-07 09:39 | 58.08169 | -20.32591 | 38029 ft | 466 kts | 295° |
| 2026-05-07 09:39 | 58.10928 | -20.43686 | 38038 ft | 467 kts | 295° |
| 2026-05-07 09:40 | 58.13678 | -20.54824 | 38045 ft | 467 kts | 295° |
| 2026-05-07 09:40 | 58.16417 | -20.65987 | 38047 ft | 467 kts | 295° |
| 2026-05-07 09:41 | 58.19144 | -20.77153 | 38050 ft | 467 kts | 295° |
| 2026-05-07 09:41 | 58.21852 | -20.88294 | 38052 ft | 467 kts | 295° |
| 2026-05-07 09:42 | 58.24567 | -20.99524 | 38061 ft | 468 kts | 295° |
| 2026-05-07 09:42 | 58.27269 | -21.10757 | 38067 ft | 467 kts | 295° |
| 2026-05-07 09:43 | 58.29962 | -21.22012 | 38070 ft | 468 kts | 295° |
| 2026-05-07 09:43 | 58.32648 | -21.33302 | 38071 ft | 468 kts | 295° |
| 2026-05-07 09:44 | 58.35324 | -21.44601 | 38078 ft | 468 kts | 295° |
| 2026-05-07 09:44 | 58.37995 | -21.55942 | 38083 ft | 469 kts | 295° |
| 2026-05-07 09:45 | 58.40635 | -21.67203 | 38091 ft | 469 kts | 295° |
| 2026-05-07 09:45 | 58.43286 | -21.78573 | 38095 ft | 469 kts | 295° |
| 2026-05-07 09:46 | 58.45923 | -21.89950 | 38097 ft | 469 kts | 295° |
| 2026-05-07 09:46 | 58.48563 | -22.01401 | 38103 ft | 469 kts | 295° |
| 2026-05-07 09:47 | 58.51188 | -22.12849 | 38107 ft | 470 kts | 295° |
| 2026-05-07 09:47 | 58.53802 | -22.24303 | 38115 ft | 470 kts | 295° |
| 2026-05-07 09:48 | 58.56393 | -22.35722 | 38115 ft | 471 kts | 295° |
| 2026-05-07 09:48 | 58.58989 | -22.47223 | 38119 ft | 471 kts | 295° |
| 2026-05-07 09:49 | 58.61582 | -22.58779 | 38121 ft | 471 kts | 295° |
| 2026-05-07 09:49 | 58.64161 | -22.70330 | 38129 ft | 471 kts | 295° |
| 2026-05-07 09:50 | 58.66731 | -22.81906 | 38132 ft | 472 kts | 295° |
| 2026-05-07 09:50 | 58.69299 | -22.93535 | 38133 ft | 472 kts | 295° |
| 2026-05-07 09:51 | 58.71849 | -23.05153 | 38137 ft | 472 kts | 294° |
| 2026-05-07 09:51 | 58.74400 | -23.16837 | 38143 ft | 472 kts | 294° |
| 2026-05-07 09:52 | 58.76919 | -23.28439 | 38145 ft | 472 kts | 294° |
| 2026-05-07 09:52 | 58.79443 | -23.40130 | 38146 ft | 472 kts | 294° |
| 2026-05-07 09:53 | 58.81958 | -23.51843 | 38154 ft | 472 kts | 294° |
| 2026-05-07 09:53 | 58.84466 | -23.63592 | 38154 ft | 472 kts | 294° |
| 2026-05-07 09:54 | 58.86943 | -23.75266 | 38154 ft | 472 kts | 294° |
| 2026-05-07 09:54 | 58.89426 | -23.87029 | 38163 ft | 472 kts | 294° |
| 2026-05-07 09:55 | 58.91899 | -23.98813 | 38162 ft | 472 kts | 294° |
| 2026-05-07 09:55 | 58.94351 | -24.10569 | 38166 ft | 472 kts | 294° |
| 2026-05-07 09:56 | 58.96391 | -24.20399 | 38168 ft | 472 kts | 294° |
| 2026-05-07 09:56 | 58.98829 | -24.32207 | 38170 ft | 471 kts | 294° |
| 2026-05-07 09:57 | 59.01251 | -24.44009 | 38172 ft | 472 kts | 294° |
| 2026-05-07 09:57 | 59.03670 | -24.55866 | 38181 ft | 472 kts | 294° |
| 2026-05-07 09:58 | 59.06074 | -24.67721 | 38181 ft | 471 kts | 294° |
| 2026-05-07 09:58 | 59.08468 | -24.79594 | 38185 ft | 471 kts | 293° |
| 2026-05-07 09:59 | 59.10851 | -24.91481 | 38184 ft | 471 kts | 293° |
| 2026-05-07 09:59 | 59.13218 | -25.03364 | 38202 ft | 471 kts | 293° |
| 2026-05-07 10:00 | 59.15575 | -25.15264 | 38204 ft | 471 kts | 293° |
| 2026-05-07 10:00 | 59.17910 | -25.27122 | 38186 ft | 471 kts | 293° |
| 2026-05-07 10:01 | 59.20244 | -25.39050 | 38204 ft | 471 kts | 293° |
| 2026-05-07 10:01 | 59.22565 | -25.50985 | 38204 ft | 471 kts | 293° |
| 2026-05-07 10:02 | 59.24881 | -25.62961 | 38199 ft | 471 kts | 293° |
| 2026-05-07 10:02 | 59.27186 | -25.74959 | 38209 ft | 471 kts | 293° |
| 2026-05-07 10:03 | 59.29474 | -25.86939 | 38219 ft | 470 kts | 293° |
| 2026-05-07 10:03 | 59.31751 | -25.98937 | 38221 ft | 470 kts | 292° |
| 2026-05-07 10:04 | 59.34020 | -26.10963 | 38219 ft | 470 kts | 292° |
| 2026-05-07 10:04 | 59.36273 | -26.22987 | 38223 ft | 470 kts | 292° |
| 2026-05-07 10:05 | 59.38505 | -26.34970 | 38230 ft | 470 kts | 292° |
| 2026-05-07 10:05 | 59.40738 | -26.47030 | 38229 ft | 470 kts | 292° |
| 2026-05-07 10:06 | 59.42953 | -26.59074 | 38236 ft | 469 kts | 292° |
| 2026-05-07 10:06 | 59.45158 | -26.71137 | 38234 ft | 469 kts | 292° |
| 2026-05-07 10:07 | 59.47353 | -26.83221 | 38239 ft | 469 kts | 292° |
| 2026-05-07 10:07 | 59.49534 | -26.95304 | 38243 ft | 468 kts | 292° |
| 2026-05-07 10:08 | 59.51700 | -27.07383 | 38247 ft | 468 kts | 292° |
| 2026-05-07 10:08 | 59.53859 | -27.19499 | 38252 ft | 468 kts | 292° |
| 2026-05-07 10:09 | 59.56000 | -27.31593 | 38253 ft | 467 kts | 292° |
| 2026-05-07 10:09 | 59.58115 | -27.43620 | 38258 ft | 467 kts | 291° |
| 2026-05-07 10:10 | 59.60235 | -27.55752 | 38278 ft | 467 kts | 291° |
| 2026-05-07 10:10 | 59.62343 | -27.67899 | 38267 ft | 467 kts | 291° |
| 2026-05-07 10:11 | 59.64441 | -27.80062 | 38263 ft | 466 kts | 291° |
| 2026-05-07 10:11 | 59.66520 | -27.92198 | 38269 ft | 466 kts | 291° |
| 2026-05-07 10:12 | 59.68574 | -28.04265 | 38274 ft | 466 kts | 291° |
| 2026-05-07 10:12 | 59.70632 | -28.16440 | 38272 ft | 466 kts | 291° |
| 2026-05-07 10:13 | 59.72677 | -28.28622 | 38279 ft | 465 kts | 291° |
| 2026-05-07 10:13 | 59.74707 | -28.40789 | 38280 ft | 465 kts | 291° |
| 2026-05-07 10:14 | 59.76728 | -28.52989 | 38281 ft | 465 kts | 291° |
| 2026-05-07 10:14 | 59.78737 | -28.65199 | 38287 ft | 465 kts | 291° |
| 2026-05-07 10:15 | 59.80731 | -28.77401 | 38289 ft | 464 kts | 290° |
| 2026-05-07 10:15 | 59.82702 | -28.89543 | 38294 ft | 464 kts | 290° |
| 2026-05-07 10:16 | 59.84670 | -29.01756 | 38292 ft | 464 kts | 290° |
| 2026-05-07 10:16 | 59.86628 | -29.13990 | 38296 ft | 464 kts | 290° |
| 2026-05-07 10:17 | 59.88573 | -29.26223 | 38299 ft | 463 kts | 290° |
| 2026-05-07 10:17 | 59.90503 | -29.38450 | 38305 ft | 463 kts | 290° |
| 2026-05-07 10:18 | 59.92425 | -29.50711 | 38304 ft | 463 kts | 290° |
| 2026-05-07 10:18 | 59.94330 | -29.62953 | 38308 ft | 463 kts | 290° |
| 2026-05-07 10:19 | 59.96226 | -29.75227 | 38313 ft | 463 kts | 290° |
| 2026-05-07 10:19 | 59.98110 | -29.87507 | 38315 ft | 462 kts | 290° |
| 2026-05-07 10:20 | 59.99982 | -29.99796 | 38317 ft | 462 kts | 290° |
| 2026-05-07 10:20 | 60.01778 | -30.12127 | 38319 ft | 462 kts | 288° |
| 2026-05-07 10:21 | 60.03483 | -30.24519 | 38320 ft | 462 kts | 288° |
| 2026-05-07 10:21 | 60.05186 | -30.36950 | 38328 ft | 462 kts | 288° |
| 2026-05-07 10:22 | 60.06890 | -30.49359 | 38330 ft | 462 kts | 288° |
| 2026-05-07 10:22 | 60.08587 | -30.61770 | 38331 ft | 462 kts | 288° |
| 2026-05-07 10:23 | 60.10271 | -30.74181 | 38339 ft | 462 kts | 288° |
| 2026-05-07 10:23 | 60.11946 | -30.86625 | 38347 ft | 462 kts | 288° |
| 2026-05-07 10:24 | 60.13595 | -30.98976 | 38343 ft | 462 kts | 288° |
| 2026-05-07 10:24 | 60.15248 | -31.11461 | 38343 ft | 461 kts | 288° |
| 2026-05-07 10:25 | 60.16883 | -31.23917 | 38348 ft | 461 kts | 288° |
| 2026-05-07 10:25 | 60.18511 | -31.36408 | 38346 ft | 461 kts | 288° |
| 2026-05-07 10:26 | 60.20123 | -31.48892 | 38351 ft | 461 kts | 287° |
| 2026-05-07 10:26 | 60.21715 | -31.61314 | 38355 ft | 462 kts | 287° |
| 2026-05-07 10:27 | 60.23313 | -31.73893 | 38355 ft | 461 kts | 287° |
| 2026-05-07 10:27 | 60.24885 | -31.86369 | 38360 ft | 462 kts | 287° |
| 2026-05-07 10:28 | 60.26451 | -31.98902 | 38362 ft | 462 kts | 287° |
| 2026-05-07 10:28 | 60.28004 | -32.11443 | 38366 ft | 462 kts | 287° |
| 2026-05-07 10:29 | 60.29551 | -32.24032 | 38366 ft | 462 kts | 287° |
| 2026-05-07 10:29 | 60.31082 | -32.36610 | 38372 ft | 462 kts | 287° |
| 2026-05-07 10:30 | 60.33347 | -32.55412 | 38369 ft | 462 kts | 287° |
| 2026-05-07 10:30 | 60.34858 | -32.68098 | 38374 ft | 462 kts | 286° |
| 2026-05-07 10:31 | 60.36337 | -32.80628 | 38374 ft | 462 kts | 286° |
| 2026-05-07 10:31 | 60.37816 | -32.93271 | 38379 ft | 462 kts | 286° |
| 2026-05-07 10:32 | 60.39282 | -33.05915 | 38380 ft | 462 kts | 286° |
| 2026-05-07 10:32 | 60.40744 | -33.18638 | 38382 ft | 462 kts | 286° |
| 2026-05-07 10:33 | 60.42186 | -33.31300 | 38397 ft | 462 kts | 286° |
| 2026-05-07 10:33 | 60.43609 | -33.43914 | 38390 ft | 462 kts | 286° |
| 2026-05-07 10:34 | 60.45026 | -33.56595 | 38395 ft | 462 kts | 285° |
| 2026-05-07 10:34 | 60.46431 | -33.69290 | 38391 ft | 462 kts | 285° |
| 2026-05-07 10:35 | 60.47824 | -33.81995 | 38390 ft | 462 kts | 285° |
| 2026-05-07 10:35 | 60.49206 | -33.94711 | 38393 ft | 462 kts | 285° |
| 2026-05-07 10:36 | 60.50575 | -34.07443 | 38390 ft | 462 kts | 285° |
| 2026-05-07 10:36 | 60.51923 | -34.20095 | 38394 ft | 461 kts | 285° |
| 2026-05-07 10:37 | 60.53268 | -34.32844 | 38396 ft | 461 kts | 285° |
| 2026-05-07 10:37 | 60.54598 | -34.45582 | 38394 ft | 461 kts | 285° |
| 2026-05-07 10:38 | 60.55919 | -34.58351 | 38387 ft | 461 kts | 285° |
| 2026-05-07 10:38 | 60.57224 | -34.71097 | 38391 ft | 461 kts | 285° |
| 2026-05-07 10:39 | 60.58523 | -34.83917 | 38392 ft | 461 kts | 284° |
| 2026-05-07 10:39 | 60.59798 | -34.96627 | 38394 ft | 461 kts | 284° |
| 2026-05-07 10:40 | 60.61070 | -35.09440 | 38395 ft | 461 kts | 284° |
| 2026-05-07 10:40 | 60.62329 | -35.22257 | 38399 ft | 462 kts | 284° |
| 2026-05-07 10:41 | 60.63578 | -35.35106 | 38393 ft | 461 kts | 284° |
| 2026-05-07 10:41 | 60.64605 | -35.45767 | 38390 ft | 461 kts | 284° |
| 2026-05-07 10:42 | 60.66029 | -35.60725 | 38389 ft | 462 kts | 284° |
| 2026-05-07 10:42 | 60.67046 | -35.71514 | 38397 ft | 462 kts | 284° |
| 2026-05-07 10:43 | 60.68239 | -35.84303 | 38391 ft | 462 kts | 284° |
| 2026-05-07 10:43 | 60.69428 | -35.97199 | 38388 ft | 462 kts | 283° |
| 2026-05-07 10:44 | 60.70603 | -36.10078 | 38390 ft | 462 kts | 283° |
| 2026-05-07 10:44 | 60.71767 | -36.22988 | 38390 ft | 462 kts | 283° |
| 2026-05-07 10:45 | 60.72918 | -36.35902 | 38386 ft | 462 kts | 283° |
| 2026-05-07 10:45 | 60.74058 | -36.48833 | 38390 ft | 462 kts | 283° |
| 2026-05-07 10:46 | 60.75184 | -36.61759 | 38385 ft | 462 kts | 283° |
| 2026-05-07 10:46 | 60.76291 | -36.74622 | 38388 ft | 462 kts | 283° |
| 2026-05-07 10:47 | 60.77395 | -36.87592 | 38389 ft | 462 kts | 283° |
| 2026-05-07 10:47 | 60.78483 | -37.00537 | 38391 ft | 462 kts | 283° |
| 2026-05-07 10:48 | 60.79560 | -37.13508 | 38383 ft | 462 kts | 282° |
| 2026-05-07 10:48 | 60.80624 | -37.26482 | 38381 ft | 462 kts | 282° |
| 2026-05-07 10:49 | 60.81675 | -37.39458 | 38379 ft | 462 kts | 282° |
| 2026-05-07 10:49 | 60.82710 | -37.52398 | 38379 ft | 462 kts | 282° |
| 2026-05-07 10:50 | 60.83738 | -37.65418 | 38375 ft | 462 kts | 282° |
| 2026-05-07 10:50 | 60.84751 | -37.78420 | 38375 ft | 462 kts | 282° |
| 2026-05-07 10:51 | 60.85754 | -37.91458 | 38374 ft | 462 kts | 282° |
| 2026-05-07 10:51 | 60.86744 | -38.04491 | 38374 ft | 462 kts | 281° |
| 2026-05-07 10:52 | 60.87723 | -38.17562 | 38373 ft | 463 kts | 281° |
| 2026-05-07 10:52 | 60.88688 | -38.30629 | 38371 ft | 463 kts | 281° |
| 2026-05-07 10:53 | 60.89634 | -38.43615 | 38373 ft | 463 kts | 281° |
| 2026-05-07 10:53 | 60.90575 | -38.56711 | 38374 ft | 463 kts | 281° |
| 2026-05-07 10:54 | 60.91503 | -38.69805 | 38374 ft | 463 kts | 281° |
| 2026-05-07 10:54 | 60.92420 | -38.82941 | 38367 ft | 464 kts | 281° |
| 2026-05-07 10:55 | 60.93324 | -38.96076 | 38363 ft | 464 kts | 280° |
| 2026-05-07 10:55 | 60.94216 | -39.09231 | 38363 ft | 464 kts | 280° |
| 2026-05-07 10:56 | 60.95095 | -39.22389 | 38362 ft | 465 kts | 280° |
| 2026-05-07 10:56 | 60.95965 | -39.35609 | 38375 ft | 465 kts | 280° |
| 2026-05-07 10:57 | 60.96821 | -39.48814 | 38360 ft | 466 kts | 280° |
| 2026-05-07 10:57 | 60.97659 | -39.61969 | 38359 ft | 466 kts | 279° |
| 2026-05-07 10:58 | 60.98490 | -39.75213 | 38372 ft | 466 kts | 279° |
| 2026-05-07 10:58 | 60.99309 | -39.88467 | 38365 ft | 466 kts | 279° |
| 2026-05-07 10:59 | 61.00317 | -40.01643 | 38369 ft | 465 kts | 287° |
| 2026-05-07 10:59 | 61.02011 | -40.14498 | 38359 ft | 464 kts | 288° |
| 2026-05-07 11:00 | 61.03798 | -40.27297 | 38361 ft | 465 kts | 288° |
| 2026-05-07 11:00 | 61.05588 | -40.40138 | 38360 ft | 465 kts | 288° |
| 2026-05-07 11:01 | 61.07358 | -40.53004 | 38358 ft | 466 kts | 288° |
| 2026-05-07 11:01 | 61.09113 | -40.65922 | 38359 ft | 467 kts | 288° |
| 2026-05-07 11:02 | 61.10847 | -40.78799 | 38362 ft | 468 kts | 287° |
| 2026-05-07 11:02 | 61.12578 | -40.91761 | 38360 ft | 468 kts | 287° |
| 2026-05-07 11:03 | 61.14304 | -41.04788 | 38356 ft | 469 kts | 287° |
| 2026-05-07 11:03 | 61.16018 | -41.17832 | 38363 ft | 470 kts | 287° |
| 2026-05-07 11:04 | 61.17718 | -41.30891 | 38365 ft | 470 kts | 287° |
| 2026-05-07 11:04 | 61.19409 | -41.43988 | 38358 ft | 470 kts | 287° |
| 2026-05-07 11:05 | 61.21077 | -41.57020 | 38358 ft | 470 kts | 287° |
| 2026-05-07 11:05 | 61.22741 | -41.70126 | 38358 ft | 469 kts | 287° |
| 2026-05-07 11:06 | 61.24389 | -41.83232 | 38356 ft | 469 kts | 287° |
| 2026-05-07 11:06 | 61.26025 | -41.96361 | 38364 ft | 469 kts | 286° |
| 2026-05-07 11:07 | 61.27649 | -42.09496 | 38361 ft | 469 kts | 286° |
| 2026-05-07 11:07 | 61.29263 | -42.22664 | 38353 ft | 469 kts | 286° |
| 2026-05-07 11:08 | 61.30864 | -42.35854 | 38355 ft | 470 kts | 285° |
| 2026-05-07 11:08 | 61.32454 | -42.49051 | 38357 ft | 471 kts | 285° |
| 2026-05-07 11:09 | 61.34034 | -42.62293 | 38353 ft | 471 kts | 285° |
| 2026-05-07 11:09 | 61.35594 | -42.75479 | 38355 ft | 471 kts | 285° |
| 2026-05-07 11:10 | 61.37151 | -42.88767 | 38357 ft | 472 kts | 285° |
| 2026-05-07 11:10 | 61.38692 | -43.02050 | 38355 ft | 472 kts | 284° |
| 2026-05-07 11:11 | 61.40226 | -43.15396 | 38357 ft | 472 kts | 284° |
| 2026-05-07 11:11 | 61.41746 | -43.28739 | 38345 ft | 472 kts | 284° |
| 2026-05-07 11:12 | 61.43252 | -43.42103 | 38326 ft | 473 kts | 284° |
| 2026-05-07 11:12 | 61.44738 | -43.55409 | 38312 ft | 472 kts | 284° |
| 2026-05-07 11:13 | 61.46217 | -43.68788 | 38288 ft | 472 kts | 284° |
| 2026-05-07 11:13 | 61.47683 | -43.82174 | 38264 ft | 472 kts | 283° |
| 2026-05-07 11:14 | 61.49138 | -43.95594 | 38245 ft | 472 kts | 283° |
| 2026-05-07 11:14 | 61.50576 | -44.08993 | 38232 ft | 472 kts | 283° |
| 2026-05-07 11:15 | 61.52002 | -44.22422 | 38226 ft | 472 kts | 283° |
| 2026-05-07 11:15 | 61.53417 | -44.35868 | 38227 ft | 473 kts | 283° |
| 2026-05-07 11:16 | 61.54823 | -44.49375 | 38229 ft | 474 kts | 282° |
| 2026-05-07 11:16 | 61.56214 | -44.62876 | 38229 ft | 474 kts | 282° |
| 2026-05-07 11:17 | 61.57594 | -44.76413 | 38235 ft | 475 kts | 282° |
| 2026-05-07 11:17 | 61.58955 | -44.89907 | 38239 ft | 475 kts | 282° |
| 2026-05-07 11:18 | 61.60313 | -45.03520 | 38242 ft | 476 kts | 282° |
| 2026-05-07 11:18 | 61.61655 | -45.17115 | 38243 ft | 476 kts | 282° |
| 2026-05-07 11:19 | 61.62986 | -45.30746 | 38250 ft | 477 kts | 281° |
| 2026-05-07 11:19 | 61.64306 | -45.44418 | 38260 ft | 477 kts | 281° |
| 2026-05-07 11:20 | 61.65611 | -45.58092 | 38256 ft | 477 kts | 281° |
| 2026-05-07 11:20 | 61.66905 | -45.71804 | 38256 ft | 477 kts | 281° |
| 2026-05-07 11:21 | 61.68184 | -45.85504 | 38256 ft | 477 kts | 280° |
| 2026-05-07 11:21 | 61.69442 | -45.99155 | 38257 ft | 477 kts | 280° |
| 2026-05-07 11:22 | 61.70694 | -46.12885 | 38246 ft | 477 kts | 280° |
| 2026-05-07 11:22 | 61.71934 | -46.26641 | 38249 ft | 477 kts | 279° |
| 2026-05-07 11:23 | 61.73159 | -46.40404 | 38252 ft | 477 kts | 279° |
| 2026-05-07 11:23 | 61.74370 | -46.54180 | 38247 ft | 477 kts | 279° |
| 2026-05-07 11:24 | 61.75568 | -46.67960 | 38244 ft | 477 kts | 279° |
| 2026-05-07 11:24 | 61.76752 | -46.81759 | 38239 ft | 477 kts | 279° |
| 2026-05-07 11:25 | 61.77916 | -46.95493 | 38233 ft | 478 kts | 278° |
| 2026-05-07 11:25 | 61.79073 | -47.09327 | 38229 ft | 478 kts | 278° |
| 2026-05-07 11:26 | 61.80215 | -47.23164 | 38229 ft | 478 kts | 278° |
| 2026-05-07 11:26 | 61.81347 | -47.37040 | 38219 ft | 478 kts | 277° |
| 2026-05-07 11:27 | 61.82465 | -47.50932 | 38213 ft | 478 kts | 277° |
| 2026-05-07 11:27 | 61.83565 | -47.64795 | 38204 ft | 478 kts | 277° |
| 2026-05-07 11:28 | 61.84655 | -47.78694 | 38195 ft | 478 kts | 277° |
| 2026-05-07 11:28 | 61.85548 | -47.90241 | 38186 ft | 478 kts | 277° |
| 2026-05-07 11:29 | 61.86612 | -48.04158 | 38183 ft | 479 kts | 277° |
| 2026-05-07 11:29 | 61.87825 | -48.20326 | 38174 ft | 479 kts | 277° |
| 2026-05-07 11:30 | 61.88696 | -48.32054 | 38174 ft | 479 kts | 277° |
| 2026-05-07 11:30 | 61.89720 | -48.46025 | 38165 ft | 480 kts | 277° |
| 2026-05-07 11:31 | 61.90728 | -48.59934 | 38157 ft | 476 kts | 275° |
| 2026-05-07 11:31 | 61.91711 | -48.73751 | 38148 ft | 472 kts | 275° |
| 2026-05-07 11:32 | 61.93154 | -48.94486 | 38140 ft | 473 kts | 275° |
| 2026-05-07 11:33 | 61.94100 | -49.08311 | 38138 ft | 473 kts | 275° |
| 2026-05-07 11:33 | 61.95029 | -49.22096 | 38130 ft | 474 kts | 274° |
| 2026-05-07 11:34 | 61.95952 | -49.35984 | 38123 ft | 474 kts | 274° |
| 2026-05-07 11:34 | 61.96859 | -49.49875 | 38117 ft | 475 kts | 274° |
| 2026-05-07 11:35 | 61.97754 | -49.63802 | 38129 ft | 475 kts | 274° |
| 2026-05-07 11:35 | 61.98636 | -49.77749 | 38115 ft | 476 kts | 274° |
| 2026-05-07 11:36 | 61.99502 | -49.91724 | 38114 ft | 476 kts | 273° |
| 2026-05-07 11:36 | 61.99407 | -50.05556 | 38118 ft | 468 kts | 257° |
| 2026-05-07 11:37 | 61.98219 | -50.19150 | 38113 ft | 467 kts | 255° |
| 2026-05-07 11:37 | 61.96860 | -50.32671 | 38109 ft | 467 kts | 254° |
| 2026-05-07 11:38 | 61.95487 | -50.46140 | 38103 ft | 466 kts | 254° |
| 2026-05-07 11:38 | 61.94125 | -50.59598 | 38102 ft | 466 kts | 253° |
| 2026-05-07 11:39 | 61.92768 | -50.72958 | 38098 ft | 465 kts | 253° |
| 2026-05-07 11:39 | 61.91392 | -50.86363 | 38096 ft | 464 kts | 253° |
| 2026-05-07 11:40 | 61.90008 | -50.99722 | 38087 ft | 464 kts | 253° |
| 2026-05-07 11:40 | 61.88610 | -51.13065 | 38081 ft | 463 kts | 253° |
| 2026-05-07 11:41 | 61.87196 | -51.26424 | 38078 ft | 464 kts | 252° |
| 2026-05-07 11:41 | 61.85772 | -51.39746 | 38071 ft | 464 kts | 252° |
| 2026-05-07 11:42 | 61.84340 | -51.52984 | 38059 ft | 464 kts | 252° |
| 2026-05-07 11:42 | 61.82887 | -51.66306 | 38055 ft | 464 kts | 252° |
| 2026-05-07 11:43 | 61.81422 | -51.79625 | 38046 ft | 465 kts | 252° |
| 2026-05-07 11:43 | 61.79941 | -51.92942 | 38044 ft | 465 kts | 252° |
| 2026-05-07 11:44 | 61.78447 | -52.06246 | 38038 ft | 465 kts | 252° |
| 2026-05-07 11:44 | 61.76939 | -52.19545 | 38029 ft | 466 kts | 252° |
| 2026-05-07 11:45 | 61.75416 | -52.32855 | 38026 ft | 466 kts | 252° |
| 2026-05-07 11:45 | 61.73889 | -52.46078 | 38020 ft | 467 kts | 252° |
| 2026-05-07 11:46 | 61.72334 | -52.59422 | 38011 ft | 468 kts | 252° |
| 2026-05-07 11:46 | 61.70767 | -52.72735 | 38009 ft | 468 kts | 252° |
| 2026-05-07 11:47 | 61.69186 | -52.86049 | 37999 ft | 469 kts | 252° |
| 2026-05-07 11:47 | 61.67589 | -52.99372 | 37994 ft | 469 kts | 252° |
| 2026-05-07 11:48 | 61.65978 | -53.12691 | 37988 ft | 470 kts | 252° |
| 2026-05-07 11:48 | 61.64351 | -53.26029 | 37982 ft | 470 kts | 252° |
| 2026-05-07 11:49 | 61.62720 | -53.39277 | 37976 ft | 471 kts | 251° |
| 2026-05-07 11:49 | 61.61067 | -53.52581 | 37972 ft | 471 kts | 251° |
| 2026-05-07 11:50 | 61.59403 | -53.65853 | 37965 ft | 471 kts | 251° |
| 2026-05-07 11:50 | 61.57717 | -53.79187 | 37958 ft | 471 kts | 251° |
| 2026-05-07 11:51 | 61.56021 | -53.92480 | 37956 ft | 471 kts | 251° |
| 2026-05-07 11:51 | 61.54313 | -54.05750 | 37950 ft | 471 kts | 251° |
| 2026-05-07 11:52 | 61.52595 | -54.18991 | 37952 ft | 471 kts | 251° |
| 2026-05-07 11:52 | 61.50860 | -54.32242 | 37943 ft | 471 kts | 251° |
| 2026-05-07 11:53 | 61.49114 | -54.45466 | 37944 ft | 471 kts | 251° |
| 2026-05-07 11:53 | 61.47366 | -54.58597 | 37936 ft | 471 kts | 251° |
| 2026-05-07 11:54 | 61.45593 | -54.71805 | 37937 ft | 471 kts | 251° |
| 2026-05-07 11:54 | 61.43808 | -54.84986 | 37923 ft | 471 kts | 250° |
| 2026-05-07 11:55 | 61.42010 | -54.98164 | 37926 ft | 471 kts | 250° |
| 2026-05-07 11:55 | 61.40199 | -55.11319 | 37922 ft | 471 kts | 250° |
| 2026-05-07 11:56 | 61.38388 | -55.24372 | 37918 ft | 471 kts | 250° |
| 2026-05-07 11:56 | 61.36555 | -55.37481 | 37917 ft | 471 kts | 250° |
| 2026-05-07 11:57 | 61.34704 | -55.50605 | 37912 ft | 472 kts | 250° |
| 2026-05-07 11:57 | 61.32841 | -55.63713 | 37911 ft | 472 kts | 250° |
| 2026-05-07 11:58 | 61.31034 | -55.76332 | 37905 ft | 472 kts | 250° |
| 2026-05-07 11:58 | 61.29159 | -55.89322 | 37902 ft | 472 kts | 250° |
| 2026-05-07 11:59 | 61.27259 | -56.02382 | 37900 ft | 472 kts | 250° |
| 2026-05-07 11:59 | 61.25345 | -56.15434 | 37895 ft | 472 kts | 250° |
| 2026-05-07 12:00 | 61.23420 | -56.28465 | 37893 ft | 472 kts | 249° |
| 2026-05-07 12:00 | 61.21482 | -56.41480 | 37889 ft | 472 kts | 249° |
| 2026-05-07 12:01 | 61.19543 | -56.54405 | 37885 ft | 471 kts | 249° |
| 2026-05-07 12:01 | 61.17583 | -56.67367 | 37885 ft | 471 kts | 249° |
| 2026-05-07 12:02 | 61.15607 | -56.80339 | 37882 ft | 472 kts | 249° |
| 2026-05-07 12:02 | 61.13620 | -56.93286 | 37878 ft | 472 kts | 249° |
| 2026-05-07 12:03 | 61.11617 | -57.06244 | 37876 ft | 472 kts | 249° |
| 2026-05-07 12:03 | 61.09605 | -57.19160 | 37872 ft | 472 kts | 249° |
| 2026-05-07 12:04 | 61.07589 | -57.32006 | 37873 ft | 472 kts | 249° |
| 2026-05-07 12:04 | 61.05550 | -57.44907 | 37871 ft | 472 kts | 249° |
| 2026-05-07 12:05 | 61.03500 | -57.57781 | 37866 ft | 473 kts | 249° |
| 2026-05-07 12:05 | 61.01433 | -57.70664 | 37860 ft | 473 kts | 248° |
| 2026-05-07 12:06 | 60.99352 | -57.83545 | 37868 ft | 473 kts | 248° |
| 2026-05-07 12:06 | 60.97360 | -57.96482 | 37859 ft | 476 kts | 253° |
| 2026-05-07 12:07 | 60.96678 | -58.10158 | 37863 ft | 486 kts | 265° |
| 2026-05-07 12:07 | 60.96668 | -58.24144 | 37860 ft | 490 kts | 267° |
| 2026-05-07 12:08 | 60.96740 | -58.38215 | 37853 ft | 490 kts | 267° |
| 2026-05-07 12:08 | 60.96777 | -58.52167 | 37848 ft | 491 kts | 266° |
| 2026-05-07 12:09 | 60.96776 | -58.66250 | 37845 ft | 490 kts | 266° |
| 2026-05-07 12:09 | 60.96753 | -58.80294 | 37849 ft | 491 kts | 266° |
| 2026-05-07 12:10 | 60.96715 | -58.94350 | 37846 ft | 491 kts | 266° |
| 2026-05-07 12:10 | 60.96663 | -59.08418 | 37845 ft | 491 kts | 266° |
| 2026-05-07 12:11 | 60.96598 | -59.22474 | 37841 ft | 491 kts | 266° |
| 2026-05-07 12:11 | 60.96518 | -59.36543 | 37839 ft | 492 kts | 266° |
| 2026-05-07 12:12 | 60.96424 | -59.50432 | 37835 ft | 492 kts | 266° |
| 2026-05-07 12:12 | 60.96314 | -59.64597 | 37832 ft | 491 kts | 266° |
| 2026-05-07 12:13 | 60.96190 | -59.78683 | 37832 ft | 492 kts | 266° |
| 2026-05-07 12:13 | 60.96051 | -59.92755 | 37826 ft | 492 kts | 265° |
| 2026-05-07 12:14 | 60.95897 | -60.06853 | 37827 ft | 492 kts | 265° |
| 2026-05-07 12:14 | 60.95729 | -60.20968 | 37821 ft | 492 kts | 265° |
| 2026-05-07 12:15 | 60.95546 | -60.34975 | 37817 ft | 493 kts | 265° |
| 2026-05-07 12:15 | 60.95349 | -60.49058 | 37815 ft | 493 kts | 265° |
| 2026-05-07 12:16 | 60.95136 | -60.63169 | 37812 ft | 493 kts | 265° |
| 2026-05-07 12:16 | 60.94948 | -60.74892 | 37809 ft | 493 kts | 265° |
| 2026-05-07 12:17 | 60.94708 | -60.89006 | 37809 ft | 493 kts | 265° |
| 2026-05-07 12:17 | 60.94410 | -61.05383 | 37804 ft | 493 kts | 265° |
| 2026-05-07 12:18 | 60.94184 | -61.17188 | 37804 ft | 493 kts | 265° |
| 2026-05-07 12:18 | 60.93999 | -61.26450 | 37805 ft | 493 kts | 265° |
| 2026-05-07 12:19 | 60.93705 | -61.40556 | 37798 ft | 493 kts | 265° |
| 2026-05-07 12:19 | 60.93398 | -61.54575 | 37787 ft | 493 kts | 264° |
| 2026-05-07 12:20 | 60.93073 | -61.68764 | 37794 ft | 494 kts | 264° |
| 2026-05-07 12:20 | 60.92734 | -61.82869 | 37787 ft | 494 kts | 264° |
| 2026-05-07 12:21 | 60.92384 | -61.96868 | 37786 ft | 494 kts | 264° |
| 2026-05-07 12:21 | 60.92016 | -62.10967 | 37783 ft | 494 kts | 264° |
| 2026-05-07 12:22 | 60.91633 | -62.25083 | 37783 ft | 494 kts | 264° |
| 2026-05-07 12:22 | 60.91236 | -62.39174 | 37775 ft | 494 kts | 264° |
| 2026-05-07 12:23 | 60.90824 | -62.53265 | 37780 ft | 494 kts | 264° |
| 2026-05-07 12:23 | 60.90396 | -62.67377 | 37776 ft | 495 kts | 264° |
| 2026-05-07 12:24 | 60.89957 | -62.81401 | 37771 ft | 495 kts | 263° |
| 2026-05-07 12:24 | 60.89499 | -62.95516 | 37771 ft | 495 kts | 263° |
| 2026-05-07 12:25 | 60.89027 | -63.09635 | 37768 ft | 495 kts | 263° |
| 2026-05-07 12:25 | 60.88541 | -63.23719 | 37766 ft | 496 kts | 263° |
| 2026-05-07 12:26 | 60.88039 | -63.37839 | 37762 ft | 496 kts | 263° |
| 2026-05-07 12:26 | 60.87522 | -63.51939 | 37761 ft | 496 kts | 263° |
| 2026-05-07 12:27 | 60.86991 | -63.66036 | 37755 ft | 496 kts | 263° |
| 2026-05-07 12:27 | 60.86446 | -63.80111 | 37756 ft | 497 kts | 263° |
| 2026-05-07 12:28 | 60.85883 | -63.94239 | 37746 ft | 497 kts | 263° |
| 2026-05-07 12:28 | 60.85312 | -64.08223 | 37740 ft | 497 kts | 263° |
| 2026-05-07 12:29 | 60.84720 | -64.22340 | 37743 ft | 497 kts | 263° |
| 2026-05-07 12:29 | 60.84117 | -64.36381 | 37744 ft | 497 kts | 263° |
| 2026-05-07 12:30 | 60.83496 | -64.50490 | 37731 ft | 497 kts | 263° |
| 2026-05-07 12:30 | 60.82861 | -64.64570 | 37738 ft | 498 kts | 262° |
| 2026-05-07 12:31 | 60.82211 | -64.78631 | 37736 ft | 498 kts | 262° |
| 2026-05-07 12:31 | 60.81546 | -64.92720 | 37748 ft | 498 kts | 262° |
| 2026-05-07 12:32 | 60.80873 | -65.06663 | 37727 ft | 498 kts | 262° |
| 2026-05-07 12:32 | 60.80179 | -65.20724 | 37728 ft | 498 kts | 262° |
| 2026-05-07 12:33 | 60.79111 | -65.41794 | 37727 ft | 498 kts | 262° |
| 2026-05-07 12:33 | 60.78382 | -65.55807 | 37721 ft | 498 kts | 262° |
| 2026-05-07 12:34 | 60.77636 | -65.69855 | 37718 ft | 499 kts | 261° |
| 2026-05-07 12:34 | 60.76887 | -65.83689 | 37715 ft | 499 kts | 261° |
| 2026-05-07 12:35 | 60.76126 | -65.97457 | 37713 ft | 499 kts | 261° |
| 2026-05-07 12:35 | 60.75358 | -66.11102 | 37711 ft | 499 kts | 261° |
| 2026-05-07 12:36 | 60.74571 | -66.24839 | 37707 ft | 499 kts | 261° |
| 2026-05-07 12:36 | 60.73767 | -66.38621 | 37708 ft | 499 kts | 261° |
| 2026-05-07 12:37 | 60.72950 | -66.52379 | 37702 ft | 499 kts | 261° |
| 2026-05-07 12:37 | 60.72119 | -66.66130 | 37700 ft | 499 kts | 261° |
| 2026-05-07 12:38 | 60.71280 | -66.79774 | 37698 ft | 499 kts | 261° |
| 2026-05-07 12:38 | 60.70422 | -66.93486 | 37697 ft | 499 kts | 261° |
| 2026-05-07 12:39 | 60.68982 | -67.06994 | 37695 ft | 497 kts | 252° |
| 2026-05-07 12:39 | 60.67092 | -67.20088 | 37696 ft | 497 kts | 251° |
| 2026-05-07 12:40 | 60.65139 | -67.33055 | 37695 ft | 497 kts | 251° |
| 2026-05-07 12:40 | 60.63125 | -67.46352 | 37696 ft | 497 kts | 251° |
| 2026-05-07 12:41 | 60.61130 | -67.59521 | 37690 ft | 497 kts | 251° |
| 2026-05-07 12:41 | 60.59149 | -67.72528 | 37691 ft | 497 kts | 251° |
| 2026-05-07 12:42 | 60.57142 | -67.85618 | 37688 ft | 497 kts | 251° |
| 2026-05-07 12:42 | 60.55118 | -67.98707 | 37686 ft | 497 kts | 251° |
| 2026-05-07 12:43 | 60.53076 | -68.11813 | 37688 ft | 497 kts | 250° |
| 2026-05-07 12:43 | 60.51021 | -68.24900 | 37681 ft | 498 kts | 250° |
| 2026-05-07 12:44 | 60.48956 | -68.37955 | 37684 ft | 498 kts | 250° |
| 2026-05-07 12:44 | 60.46878 | -68.50996 | 37676 ft | 498 kts | 250° |
| 2026-05-07 12:45 | 60.44792 | -68.63993 | 37677 ft | 498 kts | 250° |
| 2026-05-07 12:45 | 60.42710 | -68.76866 | 37674 ft | 498 kts | 250° |
| 2026-05-07 12:46 | 60.40585 | -68.89914 | 37672 ft | 498 kts | 250° |
| 2026-05-07 12:46 | 60.38455 | -69.02892 | 37676 ft | 498 kts | 250° |
| 2026-05-07 12:47 | 60.36313 | -69.15856 | 37670 ft | 498 kts | 250° |
| 2026-05-07 12:47 | 60.34173 | -69.28712 | 37664 ft | 498 kts | 250° |
| 2026-05-07 12:48 | 60.32021 | -69.41549 | 37664 ft | 498 kts | 249° |
| 2026-05-07 12:48 | 60.29864 | -69.54327 | 37658 ft | 498 kts | 249° |
| 2026-05-07 12:49 | 60.27639 | -69.67409 | 37652 ft | 498 kts | 249° |
| 2026-05-07 12:49 | 60.25438 | -69.80266 | 37642 ft | 498 kts | 249° |
| 2026-05-07 12:50 | 60.23222 | -69.93120 | 37635 ft | 498 kts | 249° |
| 2026-05-07 12:50 | 60.21002 | -70.05904 | 37636 ft | 498 kts | 249° |
| 2026-05-07 12:51 | 60.18760 | -70.18730 | 37635 ft | 498 kts | 249° |
| 2026-05-07 12:51 | 60.16503 | -70.31553 | 37640 ft | 498 kts | 249° |
| 2026-05-07 12:52 | 60.14238 | -70.44334 | 37638 ft | 498 kts | 249° |
| 2026-05-07 12:52 | 60.11951 | -70.57149 | 37642 ft | 498 kts | 249° |
| 2026-05-07 12:53 | 60.09680 | -70.69787 | 37641 ft | 498 kts | 249° |
| 2026-05-07 12:53 | 60.07386 | -70.82470 | 37641 ft | 498 kts | 248° |
| 2026-05-07 12:54 | 60.05068 | -70.95206 | 37636 ft | 498 kts | 248° |
| 2026-05-07 12:54 | 60.02748 | -71.07863 | 37632 ft | 498 kts | 248° |
| 2026-05-07 12:55 | 60.00407 | -71.20551 | 37630 ft | 498 kts | 248° |
| 2026-05-07 12:55 | 59.98039 | -71.33300 | 37630 ft | 498 kts | 248° |
| 2026-05-07 12:56 | 59.95664 | -71.46001 | 37625 ft | 498 kts | 248° |
| 2026-05-07 12:56 | 59.93291 | -71.58613 | 37622 ft | 498 kts | 248° |
| 2026-05-07 12:57 | 59.90895 | -71.71260 | 37622 ft | 498 kts | 248° |
| 2026-05-07 12:57 | 59.88489 | -71.83885 | 37612 ft | 498 kts | 247° |
| 2026-05-07 12:58 | 59.86089 | -71.96392 | 37616 ft | 498 kts | 247° |
| 2026-05-07 12:58 | 59.83688 | -72.08825 | 37614 ft | 498 kts | 247° |
| 2026-05-07 12:59 | 59.81271 | -72.21267 | 37610 ft | 498 kts | 247° |
| 2026-05-07 12:59 | 59.78784 | -72.33987 | 37607 ft | 498 kts | 247° |
| 2026-05-07 13:00 | 59.76318 | -72.46515 | 37603 ft | 498 kts | 247° |
| 2026-05-07 13:00 | 59.73851 | -72.58972 | 37608 ft | 498 kts | 246° |
| 2026-05-07 13:01 | 59.71366 | -72.71437 | 37589 ft | 498 kts | 246° |
| 2026-05-07 13:01 | 59.68892 | -72.83780 | 37595 ft | 498 kts | 246° |
| 2026-05-07 13:02 | 59.66395 | -72.96153 | 37594 ft | 498 kts | 246° |
| 2026-05-07 13:02 | 59.63878 | -73.08554 | 37586 ft | 498 kts | 246° |
| 2026-05-07 13:03 | 59.61358 | -73.20884 | 37578 ft | 498 kts | 246° |
| 2026-05-07 13:03 | 59.58817 | -73.33251 | 37580 ft | 498 kts | 246° |
| 2026-05-07 13:04 | 59.56275 | -73.45545 | 37589 ft | 498 kts | 246° |
| 2026-05-07 13:04 | 59.54147 | -73.55781 | 37582 ft | 498 kts | 246° |
| 2026-05-07 13:05 | 59.51569 | -73.68114 | 37579 ft | 498 kts | 246° |
| 2026-05-07 13:05 | 59.48551 | -73.82457 | 37572 ft | 498 kts | 245° |
| 2026-05-07 13:06 | 59.46395 | -73.92639 | 37570 ft | 498 kts | 245° |
| 2026-05-07 13:06 | 59.43805 | -74.04813 | 37567 ft | 498 kts | 245° |
| 2026-05-07 13:07 | 59.41199 | -74.16983 | 37566 ft | 498 kts | 245° |
| 2026-05-07 13:07 | 59.38557 | -74.29249 | 37562 ft | 498 kts | 245° |
| 2026-05-07 13:08 | 59.35886 | -74.41579 | 37559 ft | 497 kts | 245° |
| 2026-05-07 13:08 | 59.33217 | -74.53830 | 37556 ft | 497 kts | 245° |
| 2026-05-07 13:09 | 59.30553 | -74.65986 | 37554 ft | 497 kts | 245° |
| 2026-05-07 13:09 | 59.27881 | -74.78104 | 37549 ft | 497 kts | 245° |
| 2026-05-07 13:10 | 59.25191 | -74.90226 | 37546 ft | 497 kts | 245° |
| 2026-05-07 13:10 | 59.22499 | -75.02296 | 37545 ft | 497 kts | 245° |
| 2026-05-07 13:11 | 59.19794 | -75.14359 | 37543 ft | 496 kts | 245° |
| 2026-05-07 13:11 | 59.17079 | -75.26395 | 37541 ft | 496 kts | 244° |
| 2026-05-07 13:12 | 59.14349 | -75.38421 | 37542 ft | 496 kts | 244° |
| 2026-05-07 13:12 | 59.11602 | -75.50466 | 37541 ft | 496 kts | 244° |
| 2026-05-07 13:13 | 59.08874 | -75.62348 | 37539 ft | 496 kts | 244° |
| 2026-05-07 13:13 | 59.06115 | -75.74311 | 37538 ft | 496 kts | 244° |
| 2026-05-07 13:14 | 59.03351 | -75.86230 | 37535 ft | 496 kts | 244° |
| 2026-05-07 13:14 | 59.00574 | -75.98134 | 37533 ft | 496 kts | 244° |
| 2026-05-07 13:15 | 58.97777 | -76.10055 | 37535 ft | 496 kts | 244° |
| 2026-05-07 13:15 | 58.94971 | -76.21954 | 37533 ft | 496 kts | 244° |
| 2026-05-07 13:16 | 58.92158 | -76.33811 | 37534 ft | 496 kts | 244° |
| 2026-05-07 13:16 | 58.89333 | -76.45647 | 37534 ft | 496 kts | 244° |
| 2026-05-07 13:17 | 58.86514 | -76.57406 | 37537 ft | 496 kts | 244° |
| 2026-05-07 13:17 | 58.83665 | -76.69222 | 37533 ft | 496 kts | 244° |
| 2026-05-07 13:18 | 58.80802 | -76.81028 | 37539 ft | 497 kts | 244° |
| 2026-05-07 13:18 | 58.77930 | -76.92810 | 37538 ft | 497 kts | 243° |
| 2026-05-07 13:19 | 58.75044 | -77.04587 | 37536 ft | 497 kts | 243° |
| 2026-05-07 13:19 | 58.72160 | -77.16294 | 37536 ft | 497 kts | 243° |
| 2026-05-07 13:20 | 58.69256 | -77.28025 | 37539 ft | 497 kts | 243° |
| 2026-05-07 13:20 | 58.66341 | -77.39724 | 37539 ft | 497 kts | 243° |
| 2026-05-07 13:21 | 58.63416 | -77.51405 | 37543 ft | 497 kts | 243° |
| 2026-05-07 13:21 | 58.60477 | -77.63087 | 37544 ft | 497 kts | 243° |
| 2026-05-07 13:22 | 58.57526 | -77.74749 | 37540 ft | 497 kts | 243° |
| 2026-05-07 13:22 | 58.54544 | -77.86473 | 37548 ft | 498 kts | 243° |
| 2026-05-07 13:23 | 58.51556 | -77.98160 | 37548 ft | 498 kts | 243° |
| 2026-05-07 13:23 | 58.48581 | -78.09738 | 37541 ft | 498 kts | 243° |
| 2026-05-07 13:24 | 58.45575 | -78.21368 | 37542 ft | 498 kts | 243° |
| 2026-05-07 13:24 | 58.42570 | -78.32937 | 37546 ft | 498 kts | 243° |
| 2026-05-07 13:25 | 58.39571 | -78.44428 | 37544 ft | 499 kts | 243° |
| 2026-05-07 13:25 | 58.36535 | -78.55996 | 37538 ft | 499 kts | 243° |
| 2026-05-07 13:26 | 58.33535 | -78.67374 | 37533 ft | 499 kts | 242° |
| 2026-05-07 13:26 | 58.30449 | -78.79014 | 37530 ft | 499 kts | 242° |
| 2026-05-07 13:27 | 58.27370 | -78.90566 | 37524 ft | 499 kts | 242° |
| 2026-05-07 13:27 | 58.24297 | -79.02039 | 37524 ft | 499 kts | 242° |
| 2026-05-07 13:28 | 58.21235 | -79.13419 | 37521 ft | 499 kts | 242° |
| 2026-05-07 13:28 | 58.18074 | -79.25103 | 37508 ft | 499 kts | 242° |
| 2026-05-07 13:29 | 58.14927 | -79.36675 | 37513 ft | 500 kts | 242° |
| 2026-05-07 13:29 | 58.11745 | -79.48312 | 37531 ft | 500 kts | 242° |
| 2026-05-07 13:30 | 58.08561 | -79.59902 | 37522 ft | 500 kts | 242° |
| 2026-05-07 13:30 | 58.05355 | -79.71513 | 37535 ft | 500 kts | 242° |
| 2026-05-07 13:31 | 58.02156 | -79.83038 | 37537 ft | 501 kts | 242° |
| 2026-05-07 13:31 | 57.98925 | -79.94621 | 37578 ft | 502 kts | 242° |
| 2026-05-07 13:32 | 57.97125 | -80.00248 | 37778 ft | 501 kts | 234° |
| 2026-05-07 13:32 | 57.95015 | -80.05456 | 38022 ft | 499 kts | 231° |
| 2026-05-07 13:32 | 57.92845 | -80.10496 | 38220 ft | 499 kts | 230° |
| 2026-05-07 13:32 | 57.90619 | -80.15521 | 38362 ft | 499 kts | 229° |